sensor_id;sensor_type;location;lat;lon;timestamp;temperature;humidity
12885;DHT22;6510;51.362;7.370;2022-10-16T00:02:07;12.50;99.90
12885;DHT22;6510;51.362;7.370;2022-10-16T00:04:33;12.60;99.90
12885;DHT22;6510;51.362;7.370;2022-10-16T00:06:58;12.50;99.90
12885;DHT22;6510;51.362;7.370;2022-10-16T00:09:24;12.50;99.90
12885;DHT22;6510;51.362;7.370;2022-10-16T00:11:50;12.60;99.90
12885;DHT22;6510;51.362;7.370;2022-10-16T00:14:16;12.50;99.90
12885;DHT22;6510;51.362;7.370;2022-10-16T00:16:42;12.50;99.90
12885;DHT22;6510;51.362;7.370;2022-10-16T00:19:09;12.60;99.90
12885;DHT22;6510;51.362;7.370;2022-10-16T00:21:35;12.60;99.90
12885;DHT22;6510;51.362;7.370;2022-10-16T00:24:07;12.60;99.90
12885;DHT22;6510;51.362;7.370;2022-10-16T00:26:34;12.70;99.90
12885;DHT22;6510;51.362;7.370;2022-10-16T00:29:02;12.70;99.90
12885;DHT22;6510;51.362;7.370;2022-10-16T00:31:28;12.60;99.90
12885;DHT22;6510;51.362;7.370;2022-10-16T00:33:55;12.50;99.90
12885;DHT22;6510;51.362;7.370;2022-10-16T00:36:23;12.50;99.90
12885;DHT22;6510;51.362;7.370;2022-10-16T00:38:54;12.60;99.90
12885;DHT22;6510;51.362;7.370;2022-10-16T00:41:22;12.50;99.90
12885;DHT22;6510;51.362;7.370;2022-10-16T00:43:51;12.50;99.90
12885;DHT22;6510;51.362;7.370;2022-10-16T00:46:26;12.40;99.90
12885;DHT22;6510;51.362;7.370;2022-10-16T00:49:09;12.40;99.90
12885;DHT22;6510;51.362;7.370;2022-10-16T00:51:47;12.30;99.90
12885;DHT22;6510;51.362;7.370;2022-10-16T00:54:18;12.40;99.90
12885;DHT22;6510;51.362;7.370;2022-10-16T00:56:46;12.30;99.90
12885;DHT22;6510;51.362;7.370;2022-10-16T00:59:19;12.30;99.90
12885;DHT22;6510;51.362;7.370;2022-10-16T01:01:45;12.40;99.90
12885;DHT22;6510;51.362;7.370;2022-10-16T01:04:11;12.40;99.90
12885;DHT22;6510;51.362;7.370;2022-10-16T01:06:46;12.50;99.90
12885;DHT22;6510;51.362;7.370;2022-10-16T01:12:31;12.40;99.90
12885;DHT22;6510;51.362;7.370;2022-10-16T01:15:09;12.40;99.90
12885;DHT22;6510;51.362;7.370;2022-10-16T01:25:56;12.50;99.90
12885;DHT22;6510;51.362;7.370;2022-10-16T01:28:29;12.50;99.90
12885;DHT22;6510;51.362;7.370;2022-10-16T01:30:58;12.60;99.90
12885;DHT22;6510;51.362;7.370;2022-10-16T01:33:36;12.50;99.90
12885;DHT22;6510;51.362;7.370;2022-10-16T01:36:10;12.50;99.90
12885;DHT22;6510;51.362;7.370;2022-10-16T01:38:39;12.60;99.90
12885;DHT22;6510;51.362;7.370;2022-10-16T01:41:33;12.50;99.90
12885;DHT22;6510;51.362;7.370;2022-10-16T01:44:10;12.40;99.90
12885;DHT22;6510;51.362;7.370;2022-10-16T01:46:39;12.40;99.90
12885;DHT22;6510;51.362;7.370;2022-10-16T01:49:07;12.30;99.90
12885;DHT22;6510;51.362;7.370;2022-10-16T01:51:35;12.30;99.90
12885;DHT22;6510;51.362;7.370;2022-10-16T01:54:04;12.30;99.90
12885;DHT22;6510;51.362;7.370;2022-10-16T01:56:35;12.30;99.90
12885;DHT22;6510;51.362;7.370;2022-10-16T01:59:06;12.30;99.90
12885;DHT22;6510;51.362;7.370;2022-10-16T02:01:34;12.30;99.90
12885;DHT22;6510;51.362;7.370;2022-10-16T02:04:08;12.20;99.90
12885;DHT22;6510;51.362;7.370;2022-10-16T02:06:34;12.20;99.90
12885;DHT22;6510;51.362;7.370;2022-10-16T02:09:01;12.20;99.90
12885;DHT22;6510;51.362;7.370;2022-10-16T02:11:27;12.20;99.90
12885;DHT22;6510;51.362;7.370;2022-10-16T02:14:00;12.10;99.90
12885;DHT22;6510;51.362;7.370;2022-10-16T02:16:39;12.20;99.90
12885;DHT22;6510;51.362;7.370;2022-10-16T02:19:06;12.20;99.90
12885;DHT22;6510;51.362;7.370;2022-10-16T02:21:44;12.20;99.90
12885;DHT22;6510;51.362;7.370;2022-10-16T02:30:08;12.10;99.90
12885;DHT22;6510;51.362;7.370;2022-10-16T02:32:40;12.10;99.90
12885;DHT22;6510;51.362;7.370;2022-10-16T02:35:07;12.20;99.90
12885;DHT22;6510;51.362;7.370;2022-10-16T02:37:33;12.20;99.90
12885;DHT22;6510;51.362;7.370;2022-10-16T02:39:59;12.20;99.90
12885;DHT22;6510;51.362;7.370;2022-10-16T02:42:37;12.20;99.90
12885;DHT22;6510;51.362;7.370;2022-10-16T02:45:04;12.20;99.90
12885;DHT22;6510;51.362;7.370;2022-10-16T02:47:30;12.30;99.90
12885;DHT22;6510;51.362;7.370;2022-10-16T02:49:55;12.30;99.90
12885;DHT22;6510;51.362;7.370;2022-10-16T02:52:21;12.30;99.90
12885;DHT22;6510;51.362;7.370;2022-10-16T02:54:47;12.30;99.90
12885;DHT22;6510;51.362;7.370;2022-10-16T02:57:12;12.30;99.90
12885;DHT22;6510;51.362;7.370;2022-10-16T02:59:38;12.40;99.90
12885;DHT22;6510;51.362;7.370;2022-10-16T03:02:04;12.40;99.90
12885;DHT22;6510;51.362;7.370;2022-10-16T03:04:29;12.40;99.90
12885;DHT22;6510;51.362;7.370;2022-10-16T03:06:55;12.50;99.90
12885;DHT22;6510;51.362;7.370;2022-10-16T03:09:21;12.40;99.90
12885;DHT22;6510;51.362;7.370;2022-10-16T03:11:46;12.50;99.90
12885;DHT22;6510;51.362;7.370;2022-10-16T03:14:12;12.50;99.90
12885;DHT22;6510;51.362;7.370;2022-10-16T03:16:37;12.40;99.90
12885;DHT22;6510;51.362;7.370;2022-10-16T03:19:03;12.50;99.90
12885;DHT22;6510;51.362;7.370;2022-10-16T03:21:29;12.50;99.90
12885;DHT22;6510;51.362;7.370;2022-10-16T03:23:55;12.40;99.90
12885;DHT22;6510;51.362;7.370;2022-10-16T03:26:20;12.50;99.90
12885;DHT22;6510;51.362;7.370;2022-10-16T03:28:46;12.40;99.90
12885;DHT22;6510;51.362;7.370;2022-10-16T03:31:12;12.50;99.90
12885;DHT22;6510;51.362;7.370;2022-10-16T03:33:37;12.50;99.90
12885;DHT22;6510;51.362;7.370;2022-10-16T03:36:03;12.40;99.90
12885;DHT22;6510;51.362;7.370;2022-10-16T03:38:29;12.40;99.90
12885;DHT22;6510;51.362;7.370;2022-10-16T03:40:54;12.40;99.90
12885;DHT22;6510;51.362;7.370;2022-10-16T03:43:20;12.40;99.90
12885;DHT22;6510;51.362;7.370;2022-10-16T03:45:46;12.30;99.90
12885;DHT22;6510;51.362;7.370;2022-10-16T03:48:11;12.40;99.90
12885;DHT22;6510;51.362;7.370;2022-10-16T03:50:37;12.40;99.90
12885;DHT22;6510;51.362;7.370;2022-10-16T03:53:03;12.40;99.90
12885;DHT22;6510;51.362;7.370;2022-10-16T03:55:28;12.40;99.90
12885;DHT22;6510;51.362;7.370;2022-10-16T03:57:54;12.40;99.90
12885;DHT22;6510;51.362;7.370;2022-10-16T04:00:21;12.30;99.90
12885;DHT22;6510;51.362;7.370;2022-10-16T04:02:51;12.40;99.90
12885;DHT22;6510;51.362;7.370;2022-10-16T04:05:17;12.30;99.90
12885;DHT22;6510;51.362;7.370;2022-10-16T04:07:43;12.30;99.90
12885;DHT22;6510;51.362;7.370;2022-10-16T04:10:08;12.30;99.90
12885;DHT22;6510;51.362;7.370;2022-10-16T04:12:34;12.20;99.90
12885;DHT22;6510;51.362;7.370;2022-10-16T04:15:00;12.20;99.90
12885;DHT22;6510;51.362;7.370;2022-10-16T04:17:25;12.20;99.90
12885;DHT22;6510;51.362;7.370;2022-10-16T04:19:51;12.20;99.90
12885;DHT22;6510;51.362;7.370;2022-10-16T04:22:16;12.10;99.90
12885;DHT22;6510;51.362;7.370;2022-10-16T04:24:42;12.20;99.90
12885;DHT22;6510;51.362;7.370;2022-10-16T04:27:08;12.10;99.90
12885;DHT22;6510;51.362;7.370;2022-10-16T04:29:33;12.10;99.90
12885;DHT22;6510;51.362;7.370;2022-10-16T04:31:59;12.10;99.90
12885;DHT22;6510;51.362;7.370;2022-10-16T04:34:24;12.10;99.90
12885;DHT22;6510;51.362;7.370;2022-10-16T04:36:50;12.10;99.90
12885;DHT22;6510;51.362;7.370;2022-10-16T04:39:16;12.10;99.90
12885;DHT22;6510;51.362;7.370;2022-10-16T04:41:45;12.10;99.90
12885;DHT22;6510;51.362;7.370;2022-10-16T04:44:14;12.10;99.90
12885;DHT22;6510;51.362;7.370;2022-10-16T04:46:40;12.10;99.90
12885;DHT22;6510;51.362;7.370;2022-10-16T04:49:05;12.00;99.90
12885;DHT22;6510;51.362;7.370;2022-10-16T04:51:31;12.00;99.90
12885;DHT22;6510;51.362;7.370;2022-10-16T04:53:57;12.00;99.90
12885;DHT22;6510;51.362;7.370;2022-10-16T04:56:22;11.90;99.90
12885;DHT22;6510;51.362;7.370;2022-10-16T04:58:48;12.00;99.90
12885;DHT22;6510;51.362;7.370;2022-10-16T05:01:14;12.00;99.90
12885;DHT22;6510;51.362;7.370;2022-10-16T05:03:40;12.10;99.90
12885;DHT22;6510;51.362;7.370;2022-10-16T05:06:06;12.10;99.90
12885;DHT22;6510;51.362;7.370;2022-10-16T05:08:34;12.10;99.90
12885;DHT22;6510;51.362;7.370;2022-10-16T05:11:00;12.10;99.90
12885;DHT22;6510;51.362;7.370;2022-10-16T05:13:27;12.00;99.90
12885;DHT22;6510;51.362;7.370;2022-10-16T05:15:53;12.00;99.90
12885;DHT22;6510;51.362;7.370;2022-10-16T05:18:18;12.10;99.90
12885;DHT22;6510;51.362;7.370;2022-10-16T05:20:44;12.00;99.90
12885;DHT22;6510;51.362;7.370;2022-10-16T05:23:10;12.00;99.90
12885;DHT22;6510;51.362;7.370;2022-10-16T05:25:37;11.90;99.90
12885;DHT22;6510;51.362;7.370;2022-10-16T05:28:03;12.00;99.90
12885;DHT22;6510;51.362;7.370;2022-10-16T05:30:28;12.00;99.90
12885;DHT22;6510;51.362;7.370;2022-10-16T05:32:54;12.10;99.90
12885;DHT22;6510;51.362;7.370;2022-10-16T05:35:20;12.00;99.90
12885;DHT22;6510;51.362;7.370;2022-10-16T05:37:46;12.00;99.90
12885;DHT22;6510;51.362;7.370;2022-10-16T05:40:13;12.10;99.90
12885;DHT22;6510;51.362;7.370;2022-10-16T05:42:39;12.10;99.90
12885;DHT22;6510;51.362;7.370;2022-10-16T05:45:07;12.00;99.90
12885;DHT22;6510;51.362;7.370;2022-10-16T05:47:33;12.00;99.90
12885;DHT22;6510;51.362;7.370;2022-10-16T05:49:59;12.10;99.90
12885;DHT22;6510;51.362;7.370;2022-10-16T05:52:26;12.10;99.90
12885;DHT22;6510;51.362;7.370;2022-10-16T05:54:51;12.00;99.90
12885;DHT22;6510;51.362;7.370;2022-10-16T05:57:17;12.00;99.90
12885;DHT22;6510;51.362;7.370;2022-10-16T05:59:43;12.00;99.90
12885;DHT22;6510;51.362;7.370;2022-10-16T06:02:12;12.10;99.90
12885;DHT22;6510;51.362;7.370;2022-10-16T06:04:38;12.10;99.90
12885;DHT22;6510;51.362;7.370;2022-10-16T06:07:04;12.10;99.90
12885;DHT22;6510;51.362;7.370;2022-10-16T06:09:30;12.10;99.90
12885;DHT22;6510;51.362;7.370;2022-10-16T06:11:55;12.00;99.90
12885;DHT22;6510;51.362;7.370;2022-10-16T06:14:21;12.10;99.90
12885;DHT22;6510;51.362;7.370;2022-10-16T06:16:46;12.20;99.90
12885;DHT22;6510;51.362;7.370;2022-10-16T06:19:12;12.10;99.90
12885;DHT22;6510;51.362;7.370;2022-10-16T06:21:38;12.10;99.90
12885;DHT22;6510;51.362;7.370;2022-10-16T06:24:03;12.10;99.90
12885;DHT22;6510;51.362;7.370;2022-10-16T06:26:30;12.20;99.90
12885;DHT22;6510;51.362;7.370;2022-10-16T06:28:58;12.20;99.90
12885;DHT22;6510;51.362;7.370;2022-10-16T06:31:24;12.30;99.90
12885;DHT22;6510;51.362;7.370;2022-10-16T06:33:56;12.30;99.90
12885;DHT22;6510;51.362;7.370;2022-10-16T06:36:23;12.30;99.90
12885;DHT22;6510;51.362;7.370;2022-10-16T06:38:49;12.30;99.90
12885;DHT22;6510;51.362;7.370;2022-10-16T06:41:17;12.40;99.90
12885;DHT22;6510;51.362;7.370;2022-10-16T06:43:43;12.50;99.90
12885;DHT22;6510;51.362;7.370;2022-10-16T06:46:13;12.50;99.90
12885;DHT22;6510;51.362;7.370;2022-10-16T06:48:39;12.60;99.90
12885;DHT22;6510;51.362;7.370;2022-10-16T06:51:06;12.70;99.90
12885;DHT22;6510;51.362;7.370;2022-10-16T06:53:36;12.90;99.90
12885;DHT22;6510;51.362;7.370;2022-10-16T06:56:16;12.90;99.90
12885;DHT22;6510;51.362;7.370;2022-10-16T06:58:43;13.00;99.90
12885;DHT22;6510;51.362;7.370;2022-10-16T07:01:10;13.10;99.90
12885;DHT22;6510;51.362;7.370;2022-10-16T07:03:40;13.20;99.90
12885;DHT22;6510;51.362;7.370;2022-10-16T07:06:09;13.00;99.90
12885;DHT22;6510;51.362;7.370;2022-10-16T07:08:45;13.10;99.90
12885;DHT22;6510;51.362;7.370;2022-10-16T07:11:12;13.20;99.90
12885;DHT22;6510;51.362;7.370;2022-10-16T07:13:41;13.40;99.90
12885;DHT22;6510;51.362;7.370;2022-10-16T07:16:12;13.70;99.90
12885;DHT22;6510;51.362;7.370;2022-10-16T07:18:39;13.80;99.90
12885;DHT22;6510;51.362;7.370;2022-10-16T07:21:12;14.20;99.90
12885;DHT22;6510;51.362;7.370;2022-10-16T07:23:39;14.60;99.90
12885;DHT22;6510;51.362;7.370;2022-10-16T07:26:05;15.00;99.90
12885;DHT22;6510;51.362;7.370;2022-10-16T07:28:31;14.90;99.90
12885;DHT22;6510;51.362;7.370;2022-10-16T07:31:04;14.80;99.90
12885;DHT22;6510;51.362;7.370;2022-10-16T07:33:31;14.60;99.90
12885;DHT22;6510;51.362;7.370;2022-10-16T07:35:57;14.50;99.90
12885;DHT22;6510;51.362;7.370;2022-10-16T07:38:23;14.40;99.90
12885;DHT22;6510;51.362;7.370;2022-10-16T07:40:59;14.80;99.90
12885;DHT22;6510;51.362;7.370;2022-10-16T07:43:26;15.20;99.90
12885;DHT22;6510;51.362;7.370;2022-10-16T07:45:52;15.50;99.90
12885;DHT22;6510;51.362;7.370;2022-10-16T07:48:18;16.50;99.90
12885;DHT22;6510;51.362;7.370;2022-10-16T07:50:44;15.40;99.90
12885;DHT22;6510;51.362;7.370;2022-10-16T07:53:10;14.80;99.90
12885;DHT22;6510;51.362;7.370;2022-10-16T07:55:37;14.80;99.90
12885;DHT22;6510;51.362;7.370;2022-10-16T07:58:03;15.00;99.90
12885;DHT22;6510;51.362;7.370;2022-10-16T08:00:29;14.50;99.90
12885;DHT22;6510;51.362;7.370;2022-10-16T08:02:59;14.30;99.90
12885;DHT22;6510;51.362;7.370;2022-10-16T08:05:30;15.10;99.90
12885;DHT22;6510;51.362;7.370;2022-10-16T08:07:56;15.50;99.90
12885;DHT22;6510;51.362;7.370;2022-10-16T08:10:24;17.30;99.90
12885;DHT22;6510;51.362;7.370;2022-10-16T08:12:51;18.90;99.90
12885;DHT22;6510;51.362;7.370;2022-10-16T08:15:17;19.20;99.90
12885;DHT22;6510;51.362;7.370;2022-10-16T08:17:43;19.60;99.90
12885;DHT22;6510;51.362;7.370;2022-10-16T08:20:12;19.20;99.90
12885;DHT22;6510;51.362;7.370;2022-10-16T08:22:37;18.30;99.90
12885;DHT22;6510;51.362;7.370;2022-10-16T08:25:03;18.40;99.90
12885;DHT22;6510;51.362;7.370;2022-10-16T08:27:33;17.60;99.90
12885;DHT22;6510;51.362;7.370;2022-10-16T08:29:58;18.10;99.90
12885;DHT22;6510;51.362;7.370;2022-10-16T08:32:24;18.40;99.90
12885;DHT22;6510;51.362;7.370;2022-10-16T08:34:49;18.10;99.90
12885;DHT22;6510;51.362;7.370;2022-10-16T08:37:15;17.50;99.90
12885;DHT22;6510;51.362;7.370;2022-10-16T08:39:43;17.50;99.90
12885;DHT22;6510;51.362;7.370;2022-10-16T08:50:09;17.00;99.90
12885;DHT22;6510;51.362;7.370;2022-10-16T08:52:40;17.00;99.90
12885;DHT22;6510;51.362;7.370;2022-10-16T08:55:21;17.90;99.90
12885;DHT22;6510;51.362;7.370;2022-10-16T08:57:51;17.90;99.90
12885;DHT22;6510;51.362;7.370;2022-10-16T09:00:17;17.50;99.90
12885;DHT22;6510;51.362;7.370;2022-10-16T09:11:30;16.70;99.90
12885;DHT22;6510;51.362;7.370;2022-10-16T09:16:28;16.80;99.90
12885;DHT22;6510;51.362;7.370;2022-10-16T09:21:37;16.90;99.90
12885;DHT22;6510;51.362;7.370;2022-10-16T09:24:17;17.80;99.90
12885;DHT22;6510;51.362;7.370;2022-10-16T09:26:44;17.40;99.90
12885;DHT22;6510;51.362;7.370;2022-10-16T09:29:18;16.80;99.90
12885;DHT22;6510;51.362;7.370;2022-10-16T09:31:50;16.80;99.90
12885;DHT22;6510;51.362;7.370;2022-10-16T09:34:29;17.00;99.90
12885;DHT22;6510;51.362;7.370;2022-10-16T09:36:57;17.00;99.90
12885;DHT22;6510;51.362;7.370;2022-10-16T09:39:24;17.00;99.90
12885;DHT22;6510;51.362;7.370;2022-10-16T09:41:50;17.50;99.90
12885;DHT22;6510;51.362;7.370;2022-10-16T09:44:26;17.50;99.90
12885;DHT22;6510;51.362;7.370;2022-10-16T09:47:25;18.40;99.90
12885;DHT22;6510;51.362;7.370;2022-10-16T09:49:57;18.50;99.90
12885;DHT22;6510;51.362;7.370;2022-10-16T09:52:25;17.30;99.90
12885;DHT22;6510;51.362;7.370;2022-10-16T09:54:53;17.60;99.90
12885;DHT22;6510;51.362;7.370;2022-10-16T09:57:20;17.50;99.90
12885;DHT22;6510;51.362;7.370;2022-10-16T09:59:54;17.30;99.90
12885;DHT22;6510;51.362;7.370;2022-10-16T10:02:35;17.70;99.90
12885;DHT22;6510;51.362;7.370;2022-10-16T10:05:04;18.00;99.90
12885;DHT22;6510;51.362;7.370;2022-10-16T10:07:33;18.00;99.90
12885;DHT22;6510;51.362;7.370;2022-10-16T10:10:04;18.50;99.90
12885;DHT22;6510;51.362;7.370;2022-10-16T10:12:31;18.00;99.90
12885;DHT22;6510;51.362;7.370;2022-10-16T10:15:10;17.60;99.90
12885;DHT22;6510;51.362;7.370;2022-10-16T10:17:55;19.20;99.90
12885;DHT22;6510;51.362;7.370;2022-10-16T10:20:32;20.50;99.90
12885;DHT22;6510;51.362;7.370;2022-10-16T10:23:42;19.50;99.90
12885;DHT22;6510;51.362;7.370;2022-10-16T10:31:27;18.20;99.90
12885;DHT22;6510;51.362;7.370;2022-10-16T10:36:35;19.10;99.90
12885;DHT22;6510;51.362;7.370;2022-10-16T10:39:25;20.50;99.90
12885;DHT22;6510;51.362;7.370;2022-10-16T10:50:58;18.00;99.90
12885;DHT22;6510;51.362;7.370;2022-10-16T11:07:20;23.20;99.90
12885;DHT22;6510;51.362;7.370;2022-10-16T11:09:53;22.80;99.90
12885;DHT22;6510;51.362;7.370;2022-10-16T11:12:28;23.10;99.90
12885;DHT22;6510;51.362;7.370;2022-10-16T11:14:57;23.60;99.90
12885;DHT22;6510;51.362;7.370;2022-10-16T11:17:38;22.50;99.90
12885;DHT22;6510;51.362;7.370;2022-10-16T11:20:24;22.10;99.90
12885;DHT22;6510;51.362;7.370;2022-10-16T11:22:55;21.60;99.90
12885;DHT22;6510;51.362;7.370;2022-10-16T11:25:27;24.50;99.90
12885;DHT22;6510;51.362;7.370;2022-10-16T11:28:10;24.20;99.90
12885;DHT22;6510;51.362;7.370;2022-10-16T11:30:54;24.60;99.90
12885;DHT22;6510;51.362;7.370;2022-10-16T11:33:28;23.50;99.90
12885;DHT22;6510;51.362;7.370;2022-10-16T11:38:55;24.70;99.90
12885;DHT22;6510;51.362;7.370;2022-10-16T11:41:37;25.60;99.90
12885;DHT22;6510;51.362;7.370;2022-10-16T11:47:30;24.90;99.90
12885;DHT22;6510;51.362;7.370;2022-10-16T11:55:42;23.60;99.90
12885;DHT22;6510;51.362;7.370;2022-10-16T11:58:36;24.20;99.90
12885;DHT22;6510;51.362;7.370;2022-10-16T12:01:22;23.70;99.90
12885;DHT22;6510;51.362;7.370;2022-10-16T12:04:30;23.00;99.90
12885;DHT22;6510;51.362;7.370;2022-10-16T12:09:56;25.40;99.90
12885;DHT22;6510;51.362;7.370;2022-10-16T12:15:19;23.00;99.90
12885;DHT22;6510;51.362;7.370;2022-10-16T12:17:45;23.70;99.90
12885;DHT22;6510;51.362;7.370;2022-10-16T12:23:02;22.40;99.90
12885;DHT22;6510;51.362;7.370;2022-10-16T12:25:34;23.50;99.90
12885;DHT22;6510;51.362;7.370;2022-10-16T12:30:42;23.10;99.90
12885;DHT22;6510;51.362;7.370;2022-10-16T12:33:25;22.40;99.90
12885;DHT22;6510;51.362;7.370;2022-10-16T12:35:52;22.70;99.90
12885;DHT22;6510;51.362;7.370;2022-10-16T12:38:26;23.50;99.90
12885;DHT22;6510;51.362;7.370;2022-10-16T12:41:07;23.60;99.90
12885;DHT22;6510;51.362;7.370;2022-10-16T12:46:22;23.70;99.90
12885;DHT22;6510;51.362;7.370;2022-10-16T12:48:48;24.10;99.90
12885;DHT22;6510;51.362;7.370;2022-10-16T12:54:12;24.30;99.90
12885;DHT22;6510;51.362;7.370;2022-10-16T13:10:40;21.60;99.90
12885;DHT22;6510;51.362;7.370;2022-10-16T13:21:25;20.30;99.90
12885;DHT22;6510;51.362;7.370;2022-10-16T13:24:02;20.30;99.90
12885;DHT22;6510;51.362;7.370;2022-10-16T13:29:12;20.40;99.90
12885;DHT22;6510;51.362;7.370;2022-10-16T13:31:40;20.70;99.90
12885;DHT22;6510;51.362;7.370;2022-10-16T13:34:10;22.30;99.90
12885;DHT22;6510;51.362;7.370;2022-10-16T13:36:49;21.10;99.90
12885;DHT22;6510;51.362;7.370;2022-10-16T13:39:26;21.40;99.90
12885;DHT22;6510;51.362;7.370;2022-10-16T13:42:14;21.70;99.90
12885;DHT22;6510;51.362;7.370;2022-10-16T13:44:47;23.60;99.90
12885;DHT22;6510;51.362;7.370;2022-10-16T13:47:24;24.10;99.90
12885;DHT22;6510;51.362;7.370;2022-10-16T13:50:19;23.40;99.90
12885;DHT22;6510;51.362;7.370;2022-10-16T13:52:45;24.60;99.90
12885;DHT22;6510;51.362;7.370;2022-10-16T13:55:16;23.60;99.90
12885;DHT22;6510;51.362;7.370;2022-10-16T13:57:42;23.60;99.90
12885;DHT22;6510;51.362;7.370;2022-10-16T14:00:26;23.70;99.90
12885;DHT22;6510;51.362;7.370;2022-10-16T14:03:11;23.40;99.90
12885;DHT22;6510;51.362;7.370;2022-10-16T14:05:50;22.20;99.90
12885;DHT22;6510;51.362;7.370;2022-10-16T14:08:16;21.50;99.90
12885;DHT22;6510;51.362;7.370;2022-10-16T14:10:46;22.40;99.90
12885;DHT22;6510;51.362;7.370;2022-10-16T14:13:17;23.30;99.90
12885;DHT22;6510;51.362;7.370;2022-10-16T14:15:47;22.70;99.90
12885;DHT22;6510;51.362;7.370;2022-10-16T14:18:21;20.30;99.90
12885;DHT22;6510;51.362;7.370;2022-10-16T14:20:48;19.40;99.90
12885;DHT22;6510;51.362;7.370;2022-10-16T14:25:43;18.70;99.90
12885;DHT22;6510;51.362;7.370;2022-10-16T14:28:17;19.00;99.90
12885;DHT22;6510;51.362;7.370;2022-10-16T14:30:56;18.80;99.90
12885;DHT22;6510;51.362;7.370;2022-10-16T14:36:12;18.30;99.90
12885;DHT22;6510;51.362;7.370;2022-10-16T14:38:40;18.20;99.90
12885;DHT22;6510;51.362;7.370;2022-10-16T14:41:06;18.10;99.90
12885;DHT22;6510;51.362;7.370;2022-10-16T14:43:37;18.10;99.90
12885;DHT22;6510;51.362;7.370;2022-10-16T14:46:14;18.10;99.90
12885;DHT22;6510;51.362;7.370;2022-10-16T14:48:42;17.90;99.90
12885;DHT22;6510;51.362;7.370;2022-10-16T14:51:14;18.10;99.90
12885;DHT22;6510;51.362;7.370;2022-10-16T14:53:42;18.10;99.90
12885;DHT22;6510;51.362;7.370;2022-10-16T14:56:24;18.10;99.90
12885;DHT22;6510;51.362;7.370;2022-10-16T14:58:51;17.90;99.90
12885;DHT22;6510;51.362;7.370;2022-10-16T15:01:17;17.80;99.90
12885;DHT22;6510;51.362;7.370;2022-10-16T15:03:46;17.80;99.90
12885;DHT22;6510;51.362;7.370;2022-10-16T15:06:15;17.70;99.90
12885;DHT22;6510;51.362;7.370;2022-10-16T15:08:41;17.60;99.90
12885;DHT22;6510;51.362;7.370;2022-10-16T15:11:18;17.70;99.90
12885;DHT22;6510;51.362;7.370;2022-10-16T15:13:44;17.60;99.90
12885;DHT22;6510;51.362;7.370;2022-10-16T15:16:15;17.60;99.90
12885;DHT22;6510;51.362;7.370;2022-10-16T15:18:42;17.50;99.90
12885;DHT22;6510;51.362;7.370;2022-10-16T15:21:28;17.50;99.90
12885;DHT22;6510;51.362;7.370;2022-10-16T15:23:54;17.50;99.90
12885;DHT22;6510;51.362;7.370;2022-10-16T15:26:20;17.50;99.90
12885;DHT22;6510;51.362;7.370;2022-10-16T15:28:45;17.40;99.90
12885;DHT22;6510;51.362;7.370;2022-10-16T15:31:11;17.40;99.90
12885;DHT22;6510;51.362;7.370;2022-10-16T15:33:36;17.40;99.90
12885;DHT22;6510;51.362;7.370;2022-10-16T15:36:03;17.40;99.90
12885;DHT22;6510;51.362;7.370;2022-10-16T15:38:30;17.30;99.90
12885;DHT22;6510;51.362;7.370;2022-10-16T15:40:56;17.30;99.90
12885;DHT22;6510;51.362;7.370;2022-10-16T15:43:22;17.30;99.90
12885;DHT22;6510;51.362;7.370;2022-10-16T15:45:59;17.30;99.90
12885;DHT22;6510;51.362;7.370;2022-10-16T15:48:26;17.20;99.90
12885;DHT22;6510;51.362;7.370;2022-10-16T15:50:52;17.20;99.90
12885;DHT22;6510;51.362;7.370;2022-10-16T15:53:18;17.10;99.90
12885;DHT22;6510;51.362;7.370;2022-10-16T15:55:43;17.10;99.90
12885;DHT22;6510;51.362;7.370;2022-10-16T15:58:09;17.10;99.90
12885;DHT22;6510;51.362;7.370;2022-10-16T16:00:34;17.00;99.90
12885;DHT22;6510;51.362;7.370;2022-10-16T16:03:00;17.00;99.90
12885;DHT22;6510;51.362;7.370;2022-10-16T16:05:26;17.00;99.90
12885;DHT22;6510;51.362;7.370;2022-10-16T16:07:52;16.90;99.90
12885;DHT22;6510;51.362;7.370;2022-10-16T16:10:18;16.90;99.90
12885;DHT22;6510;51.362;7.370;2022-10-16T16:12:47;16.90;99.90
12885;DHT22;6510;51.362;7.370;2022-10-16T16:15:19;16.80;99.90
12885;DHT22;6510;51.362;7.370;2022-10-16T16:17:45;16.80;99.90
12885;DHT22;6510;51.362;7.370;2022-10-16T16:20:10;16.80;99.90
12885;DHT22;6510;51.362;7.370;2022-10-16T16:22:36;16.80;99.90
12885;DHT22;6510;51.362;7.370;2022-10-16T16:25:02;16.70;99.90
12885;DHT22;6510;51.362;7.370;2022-10-16T16:27:27;16.60;99.90
12885;DHT22;6510;51.362;7.370;2022-10-16T16:29:55;16.60;99.90
12885;DHT22;6510;51.362;7.370;2022-10-16T16:32:21;16.60;99.90
12885;DHT22;6510;51.362;7.370;2022-10-16T16:34:47;16.50;99.90
12885;DHT22;6510;51.362;7.370;2022-10-16T16:37:13;16.50;99.90
12885;DHT22;6510;51.362;7.370;2022-10-16T16:39:41;16.50;99.90
12885;DHT22;6510;51.362;7.370;2022-10-16T16:42:07;16.50;99.90
12885;DHT22;6510;51.362;7.370;2022-10-16T16:44:33;16.50;99.90
12885;DHT22;6510;51.362;7.370;2022-10-16T16:47:02;16.40;99.90
12885;DHT22;6510;51.362;7.370;2022-10-16T16:49:27;16.40;99.90
12885;DHT22;6510;51.362;7.370;2022-10-16T16:51:53;16.40;99.90
12885;DHT22;6510;51.362;7.370;2022-10-16T16:54:19;16.30;99.90
12885;DHT22;6510;51.362;7.370;2022-10-16T16:56:45;16.30;99.90
12885;DHT22;6510;51.362;7.370;2022-10-16T16:59:16;16.30;99.90
12885;DHT22;6510;51.362;7.370;2022-10-16T17:01:43;16.30;99.90
12885;DHT22;6510;51.362;7.370;2022-10-16T17:04:09;16.30;99.90
12885;DHT22;6510;51.362;7.370;2022-10-16T17:06:36;16.30;99.90
12885;DHT22;6510;51.362;7.370;2022-10-16T17:09:03;16.30;99.90
12885;DHT22;6510;51.362;7.370;2022-10-16T17:11:30;16.30;99.90
12885;DHT22;6510;51.362;7.370;2022-10-16T17:13:57;16.30;99.90
12885;DHT22;6510;51.362;7.370;2022-10-16T17:16:25;16.30;99.90
12885;DHT22;6510;51.362;7.370;2022-10-16T17:18:51;16.40;99.90
12885;DHT22;6510;51.362;7.370;2022-10-16T17:21:18;16.40;99.90
12885;DHT22;6510;51.362;7.370;2022-10-16T17:23:44;16.30;99.90
12885;DHT22;6510;51.362;7.370;2022-10-16T17:26:13;16.30;99.90
12885;DHT22;6510;51.362;7.370;2022-10-16T17:28:40;16.30;99.90
12885;DHT22;6510;51.362;7.370;2022-10-16T17:31:19;16.20;99.90
12885;DHT22;6510;51.362;7.370;2022-10-16T17:33:45;16.20;99.90
12885;DHT22;6510;51.362;7.370;2022-10-16T17:36:12;16.20;99.90
12885;DHT22;6510;51.362;7.370;2022-10-16T17:38:42;16.20;99.90
12885;DHT22;6510;51.362;7.370;2022-10-16T17:41:19;16.20;99.90
12885;DHT22;6510;51.362;7.370;2022-10-16T17:43:46;16.30;99.90
12885;DHT22;6510;51.362;7.370;2022-10-16T17:46:13;16.20;99.90
12885;DHT22;6510;51.362;7.370;2022-10-16T17:48:41;16.20;99.90
12885;DHT22;6510;51.362;7.370;2022-10-16T17:51:08;16.20;99.90
12885;DHT22;6510;51.362;7.370;2022-10-16T17:53:35;16.20;99.90
12885;DHT22;6510;51.362;7.370;2022-10-16T17:56:10;16.20;99.90
12885;DHT22;6510;51.362;7.370;2022-10-16T17:58:37;16.20;99.90
12885;DHT22;6510;51.362;7.370;2022-10-16T18:01:17;16.20;99.90
12885;DHT22;6510;51.362;7.370;2022-10-16T18:03:47;16.30;99.90
12885;DHT22;6510;51.362;7.370;2022-10-16T18:06:13;16.30;99.90
12885;DHT22;6510;51.362;7.370;2022-10-16T18:08:38;16.20;99.90